Time;durP1;ratioP1;P1;durP2;ratioP2;P2;SDS_P1;SDS_P2;PMS_P1;PMS_P2;Temp;Humidity;BMP_temperature;BMP_pressure;BME280_temperature;BME280_humidity;BME280_pressure;Samples;Min_cycle;Max_cycle;Signal;HPM_P1;HPM_P2
2023/08/19 00:00:36;;;;;;;11.27;10.77;;;;;;;;;;5067119;28;20024;-63
2023/08/19 00:03:02;;;;;;;11.80;11.30;;;;;;;;;;5069341;28;20527;-64
2023/08/19 00:05:27;;;;;;;11.00;10.50;;;;;;;;;;5068127;28;20016;-62
2023/08/19 00:07:52;;;;;;;11.50;11.00;;;;;;;;;;5070326;28;20078;-62
2023/08/19 00:10:18;;;;;;;11.57;11.07;;;;;;;;;;5061007;28;20094;-66
2023/08/19 00:12:43;;;;;;;11.43;10.93;;;;;;;;;;5067854;28;20035;-63
2023/08/19 00:15:09;;;;;;;11.38;10.88;;;;;;;;;;5065633;28;20027;-64
2023/08/19 00:17:34;;;;;;;11.43;10.93;;;;;;;;;;5068842;28;20025;-64
2023/08/19 00:20:00;;;;;;;11.05;10.55;;;;;;;;;;5069536;28;20039;-63
2023/08/19 00:22:26;;;;;;;11.27;10.77;;;;;;;;;;5071254;28;20036;-63
2023/08/19 00:24:51;;;;;;;11.43;10.93;;;;;;;;;;5068145;28;20017;-64
2023/08/19 00:27:16;;;;;;;11.50;11.00;;;;;;;;;;5066816;28;20075;-63
2023/08/19 00:29:42;;;;;;;11.30;10.80;;;;;;;;;;5067107;28;20025;-63
2023/08/19 00:32:07;;;;;;;11.55;11.05;;;;;;;;;;5069898;28;20028;-63
2023/08/19 00:34:32;;;;;;;11.55;11.05;;;;;;;;;;5067423;28;20652;-62
2023/08/19 00:36:57;;;;;;;11.77;11.27;;;;;;;;;;5068530;28;20497;-63
2023/08/19 00:39:23;;;;;;;11.25;10.75;;;;;;;;;;5072380;28;20023;-63
2023/08/19 00:41:48;;;;;;;11.50;11.00;;;;;;;;;;5069240;28;20027;-63
2023/08/19 00:44:14;;;;;;;11.55;11.00;;;;;;;;;;5068931;28;20012;-63
2023/08/19 00:46:39;;;;;;;11.30;10.80;;;;;;;;;;5069436;28;20020;-63
2023/08/19 00:49:05;;;;;;;11.30;10.80;;;;;;;;;;5070350;28;20095;-62
2023/08/19 00:51:30;;;;;;;11.82;11.32;;;;;;;;;;5066679;28;20016;-62
2023/08/19 00:53:56;;;;;;;11.55;11.05;;;;;;;;;;5069082;28;20033;-64
2023/08/19 00:56:21;;;;;;;11.30;10.80;;;;;;;;;;5068490;28;20024;-62
2023/08/19 00:58:46;;;;;;;11.60;11.10;;;;;;;;;;5071509;28;20170;-62
2023/08/19 01:01:12;;;;;;;11.30;10.80;;;;;;;;;;5071992;28;20027;-63
2023/08/19 01:03:37;;;;;;;11.60;11.10;;;;;;;;;;5072829;28;20044;-63
2023/08/19 01:06:06;;;;;;;11.10;10.60;;;;;;;;;;5072832;28;20130;-63
2023/08/19 01:08:50;;;;;;;11.07;10.57;;;;;;;;;;5069205;28;20020;-63
2023/08/19 01:11:35;;;;;;;11.13;10.63;;;;;;;;;;5070075;28;20399;-63
2023/08/19 01:14:07;;;;;;;11.25;10.75;;;;;;;;;;5024020;28;20021;-62
2023/08/19 01:16:33;;;;;;;11.70;11.20;;;;;;;;;;5071310;28;20048;-64
2023/08/19 01:19:00;;;;;;;11.15;10.65;;;;;;;;;;5072983;28;20021;-62
2023/08/19 01:21:25;;;;;;;11.35;10.85;;;;;;;;;;5071109;28;20038;-62
2023/08/19 01:23:52;;;;;;;11.30;10.80;;;;;;;;;;5071517;28;20016;-62
2023/08/19 01:26:17;;;;;;;11.23;10.73;;;;;;;;;;5071769;28;20031;-63
2023/08/19 01:28:43;;;;;;;11.68;11.18;;;;;;;;;;5071991;28;20013;-63
2023/08/19 01:31:08;;;;;;;11.32;10.82;;;;;;;;;;5072811;28;20028;-62
2023/08/19 01:33:34;;;;;;;11.40;10.90;;;;;;;;;;5070986;28;20078;-63
2023/08/19 01:36:03;;;;;;;11.23;10.73;;;;;;;;;;5056652;28;20033;-63
2023/08/19 01:38:31;;;;;;;11.45;10.95;;;;;;;;;;5070714;28;20051;-63
2023/08/19 01:40:57;;;;;;;11.45;10.95;;;;;;;;;;5070943;28;20055;-63
2023/08/19 01:43:24;;;;;;;11.43;10.93;;;;;;;;;;5072517;28;20472;-63
2023/08/19 01:45:50;;;;;;;11.15;10.65;;;;;;;;;;5074381;28;20519;-63
2023/08/19 01:48:16;;;;;;;11.10;10.60;;;;;;;;;;5071816;28;20104;-63
2023/08/19 01:50:42;;;;;;;11.35;10.85;;;;;;;;;;5070756;28;20048;-63
2023/08/19 01:53:07;;;;;;;11.27;10.77;;;;;;;;;;5070888;28;20506;-63
2023/08/19 01:55:33;;;;;;;11.60;11.10;;;;;;;;;;5071322;28;20033;-63
2023/08/19 01:57:58;;;;;;;11.45;10.95;;;;;;;;;;5069311;28;20079;-63
2023/08/19 02:00:23;;;;;;;11.40;10.90;;;;;;;;;;5069796;28;20020;-62
2023/08/19 02:02:49;;;;;;;11.18;10.68;;;;;;;;;;5072327;28;20024;-62
2023/08/19 02:05:15;;;;;;;11.40;10.90;;;;;;;;;;5072249;28;20636;-62
2023/08/19 02:07:41;;;;;;;11.43;10.93;;;;;;;;;;5070878;28;20426;-62
2023/08/19 02:10:06;;;;;;;11.18;10.68;;;;;;;;;;5071727;28;20077;-63
2023/08/19 02:12:32;;;;;;;11.25;10.75;;;;;;;;;;5070752;28;20025;-63
2023/08/19 02:14:57;;;;;;;11.10;10.60;;;;;;;;;;5071495;28;20024;-63
2023/08/19 02:17:22;;;;;;;11.38;10.88;;;;;;;;;;5070878;28;20506;-62
2023/08/19 02:19:48;;;;;;;11.15;10.65;;;;;;;;;;5072336;28;20059;-63
2023/08/19 02:22:13;;;;;;;11.43;10.93;;;;;;;;;;5075788;28;20075;-63
2023/08/19 02:24:38;;;;;;;11.30;10.80;;;;;;;;;;5073673;28;20185;-64
2023/08/19 02:27:04;;;;;;;11.65;11.15;;;;;;;;;;5070835;28;20033;-64
2023/08/19 02:29:29;;;;;;;11.32;10.82;;;;;;;;;;5072222;28;20021;-64
2023/08/19 02:31:54;;;;;;;11.43;10.93;;;;;;;;;;5068364;28;20488;-64
2023/08/19 02:34:19;;;;;;;11.32;10.82;;;;;;;;;;5071250;28;20130;-63
2023/08/19 02:36:45;;;;;;;11.55;11.05;;;;;;;;;;5070674;28;20100;-63
2023/08/19 02:39:11;;;;;;;11.30;10.80;;;;;;;;;;5070345;28;20025;-64
2023/08/19 02:41:36;;;;;;;11.43;10.93;;;;;;;;;;5070296;28;20078;-63
2023/08/19 02:44:02;;;;;;;11.75;11.25;;;;;;;;;;5070055;28;20395;-63
2023/08/19 02:46:27;;;;;;;11.15;10.65;;;;;;;;;;5068966;28;20024;-63
2023/08/19 02:48:52;;;;;;;11.30;10.80;;;;;;;;;;5070250;28;20095;-63
2023/08/19 02:51:18;;;;;;;11.70;11.20;;;;;;;;;;5069616;28;20089;-63
2023/08/19 02:53:43;;;;;;;11.68;11.18;;;;;;;;;;5070849;28;20024;-63
2023/08/19 02:56:08;;;;;;;11.30;10.80;;;;;;;;;;5074382;28;20012;-63
2023/08/19 02:58:33;;;;;;;11.63;11.13;;;;;;;;;;5070772;28;20016;-63
2023/08/19 03:00:59;;;;;;;11.25;10.75;;;;;;;;;;5070601;28;20024;-63
2023/08/19 03:03:27;;;;;;;11.30;10.80;;;;;;;;;;5069343;28;20049;-63
2023/08/19 03:05:56;;;;;;;11.60;11.10;;;;;;;;;;5065064;28;20035;-63
2023/08/19 03:08:22;;;;;;;11.07;10.57;;;;;;;;;;5070641;28;20024;-63
2023/08/19 03:10:47;;;;;;;11.40;10.90;;;;;;;;;;5072359;28;20070;-64
2023/08/19 03:13:12;;;;;;;11.43;10.93;;;;;;;;;;5069773;28;20040;-63
2023/08/19 03:15:38;;;;;;;11.60;11.10;;;;;;;;;;5070458;28;20131;-63
2023/08/19 03:18:04;;;;;;;11.43;10.93;;;;;;;;;;5067162;28;20392;-64
2023/08/19 03:20:29;;;;;;;11.70;11.20;;;;;;;;;;5067884;28;20025;-62
2023/08/19 03:22:55;;;;;;;11.50;11.00;;;;;;;;;;5070775;28;20016;-62
2023/08/19 03:25:20;;;;;;;11.70;11.20;;;;;;;;;;5070832;28;20166;-63
2023/08/19 03:27:45;;;;;;;11.52;11.02;;;;;;;;;;5070303;28;20020;-63
2023/08/19 03:30:11;;;;;;;11.32;10.82;;;;;;;;;;5070223;28;20020;-63
2023/08/19 03:32:36;;;;;;;11.43;10.93;;;;;;;;;;5068801;28;20075;-64
2023/08/19 03:35:02;;;;;;;11.43;10.93;;;;;;;;;;5069985;28;20062;-63
2023/08/19 03:37:28;;;;;;;11.68;11.18;;;;;;;;;;5070871;28;20128;-65
2023/08/19 03:39:53;;;;;;;11.73;11.23;;;;;;;;;;5069028;28;20107;-64
2023/08/19 03:42:18;;;;;;;12.38;11.77;;;;;;;;;;5066933;28;20025;-63
2023/08/19 03:44:44;;;;;;;11.18;10.68;;;;;;;;;;5067282;28;20056;-63
2023/08/19 03:47:13;;;;;;;11.80;11.30;;;;;;;;;;5068580;28;20021;-63
2023/08/19 03:49:38;;;;;;;11.50;11.00;;;;;;;;;;5064258;28;20074;-63
2023/08/19 03:52:07;;;;;;;12.02;11.52;;;;;;;;;;5068940;28;20028;-64
2023/08/19 03:54:32;;;;;;;11.77;11.27;;;;;;;;;;5067028;28;20123;-64
2023/08/19 03:56:58;;;;;;;11.60;11.10;;;;;;;;;;5068483;28;21097;-64
2023/08/19 03:59:23;;;;;;;11.70;11.20;;;;;;;;;;5068963;28;20027;-63
2023/08/19 04:01:48;;;;;;;11.60;11.10;;;;;;;;;;5069708;28;20036;-64
2023/08/19 04:04:14;;;;;;;11.77;11.27;;;;;;;;;;5058748;28;20049;-64
2023/08/19 04:06:39;;;;;;;11.55;11.05;;;;;;;;;;5057570;28;20034;-62
2023/08/19 04:09:05;;;;;;;11.43;10.93;;;;;;;;;;5052163;28;20025;-63
2023/08/19 04:11:30;;;;;;;12.02;11.52;;;;;;;;;;5061288;28;20052;-64
2023/08/19 04:13:55;;;;;;;12.20;11.70;;;;;;;;;;5051561;28;20021;-64
2023/08/19 04:16:22;;;;;;;11.60;11.10;;;;;;;;;;5057978;28;20025;-64
2023/08/19 04:18:48;;;;;;;11.60;11.10;;;;;;;;;;5056793;28;20442;-63
2023/08/19 04:21:13;;;;;;;11.63;11.13;;;;;;;;;;5050079;28;20025;-63
2023/08/19 04:23:38;;;;;;;12.00;11.50;;;;;;;;;;5057084;28;20047;-64
2023/08/19 04:26:04;;;;;;;11.57;11.07;;;;;;;;;;5059807;28;20025;-64
2023/08/19 04:28:30;;;;;;;12.00;11.50;;;;;;;;;;5040876;28;20717;-63
2023/08/19 04:31:08;;;;;;;11.50;11.00;;;;;;;;;;5055132;28;20053;-65
2023/08/19 04:33:35;;;;;;;11.73;11.23;;;;;;;;;;5057762;28;20025;-63
2023/08/19 04:36:01;;;;;;;11.95;11.45;;;;;;;;;;5058948;28;20484;-64
2023/08/19 04:38:26;;;;;;;11.88;11.38;;;;;;;;;;5061015;28;20104;-64
2023/08/19 04:40:52;;;;;;;11.77;11.27;;;;;;;;;;5045702;28;20040;-64
2023/08/19 04:43:20;;;;;;;12.20;11.70;;;;;;;;;;5052266;28;20770;-64
2023/08/19 04:45:46;;;;;;;12.13;11.63;;;;;;;;;;5053349;28;20423;-59
2023/08/19 04:48:11;;;;;;;12.15;11.65;;;;;;;;;;5058721;28;20044;-60
2023/08/19 04:50:37;;;;;;;12.20;11.70;;;;;;;;;;5053179;28;20033;-60
2023/08/19 04:53:03;;;;;;;12.07;11.57;;;;;;;;;;5066608;28;20264;-59
2023/08/19 04:55:28;;;;;;;12.00;11.50;;;;;;;;;;5052544;28;20108;-59
2023/08/19 04:57:54;;;;;;;12.18;11.68;;;;;;;;;;5054108;28;20184;-61
2023/08/19 05:00:19;;;;;;;12.20;11.70;;;;;;;;;;5042736;28;20028;-59
2023/08/19 05:02:45;;;;;;;12.15;11.65;;;;;;;;;;5050566;28;20293;-59
2023/08/19 05:05:11;;;;;;;11.93;11.43;;;;;;;;;;5066147;28;20045;-60
2023/08/19 05:07:37;;;;;;;12.35;11.85;;;;;;;;;;5067162;28;20387;-60
2023/08/19 05:10:02;;;;;;;12.13;11.63;;;;;;;;;;5067292;28;20058;-60
2023/08/19 05:12:27;;;;;;;12.10;11.60;;;;;;;;;;5069155;28;20685;-60
2023/08/19 05:14:53;;;;;;;12.10;11.60;;;;;;;;;;5068347;28;20082;-59
2023/08/19 05:17:18;;;;;;;12.20;11.70;;;;;;;;;;5069097;28;20594;-58
2023/08/19 05:19:44;;;;;;;12.20;11.70;;;;;;;;;;5066327;28;20056;-62
2023/08/19 05:22:09;;;;;;;12.27;11.77;;;;;;;;;;5064927;28;20025;-63
2023/08/19 05:24:34;;;;;;;12.27;11.77;;;;;;;;;;5050943;28;20055;-62
2023/08/19 05:27:00;;;;;;;12.48;11.90;;;;;;;;;;5068364;28;20369;-62
2023/08/19 05:29:25;;;;;;;12.27;11.77;;;;;;;;;;5067848;28;20025;-61
2023/08/19 05:31:51;;;;;;;12.13;11.63;;;;;;;;;;5068965;28;20159;-62
2023/08/19 05:34:16;;;;;;;11.97;11.47;;;;;;;;;;5065422;28;20025;-61
2023/08/19 05:36:41;;;;;;;11.90;11.40;;;;;;;;;;5067358;28;20281;-62
2023/08/19 05:39:07;;;;;;;12.25;11.75;;;;;;;;;;5064220;28;20073;-62
2023/08/19 05:41:33;;;;;;;12.15;11.65;;;;;;;;;;5066291;28;20081;-63
2023/08/19 05:43:58;;;;;;;12.55;11.98;;;;;;;;;;5066802;28;20383;-63
2023/08/19 05:46:23;;;;;;;12.30;11.80;;;;;;;;;;5070160;28;20466;-63
2023/08/19 05:48:49;;;;;;;12.20;11.70;;;;;;;;;;5064332;28;20600;-63
2023/08/19 05:51:14;;;;;;;12.00;11.50;;;;;;;;;;5068578;28;20017;-62
2023/08/19 05:53:40;;;;;;;12.13;11.63;;;;;;;;;;5070702;28;20725;-62
2023/08/19 05:56:05;;;;;;;12.10;11.60;;;;;;;;;;5065703;28;20037;-62
2023/08/19 05:58:30;;;;;;;12.30;11.80;;;;;;;;;;5064445;28;20025;-61
2023/08/19 06:00:57;;;;;;;11.87;11.37;;;;;;;;;;5065758;28;20276;-62
2023/08/19 06:03:22;;;;;;;12.07;11.57;;;;;;;;;;5061652;28;20301;-62
2023/08/19 06:05:48;;;;;;;11.93;11.43;;;;;;;;;;5045602;28;20044;-62
2023/08/19 06:08:13;;;;;;;12.27;11.77;;;;;;;;;;5046104;28;20022;-63
2023/08/19 06:10:43;;;;;;;12.15;11.65;;;;;;;;;;5044923;28;20864;-62
2023/08/19 06:13:09;;;;;;;12.30;11.80;;;;;;;;;;5043370;28;20388;-61
2023/08/19 06:15:34;;;;;;;12.20;11.70;;;;;;;;;;5052590;28;20025;-62
2023/08/19 06:18:00;;;;;;;11.85;11.35;;;;;;;;;;5050958;28;20020;-63
2023/08/19 06:20:25;;;;;;;12.13;11.63;;;;;;;;;;5052191;28;20025;-63
2023/08/19 06:22:51;;;;;;;12.35;11.80;;;;;;;;;;5047213;28;20479;-62
2023/08/19 06:25:16;;;;;;;11.80;11.30;;;;;;;;;;5054220;28;20021;-62
2023/08/19 06:27:41;;;;;;;12.13;11.63;;;;;;;;;;5052568;28;20427;-62
2023/08/19 06:30:07;;;;;;;12.13;11.63;;;;;;;;;;5042769;28;20135;-62
2023/08/19 06:32:32;;;;;;;12.00;11.50;;;;;;;;;;5046569;28;20467;-63
2023/08/19 06:34:58;;;;;;;12.23;11.73;;;;;;;;;;5049381;28;20069;-63
2023/08/19 06:37:28;;;;;;;11.88;11.38;;;;;;;;;;5050952;28;20021;-63
2023/08/19 06:39:55;;;;;;;12.25;11.75;;;;;;;;;;5059231;28;20035;-63
2023/08/19 06:42:22;;;;;;;12.57;11.98;;;;;;;;;;5054657;28;20476;-63
2023/08/19 06:44:49;;;;;;;12.25;11.75;;;;;;;;;;5053000;28;20032;-63
2023/08/19 06:47:19;;;;;;;11.88;11.38;;;;;;;;;;5051134;28;20028;-63
2023/08/19 06:49:45;;;;;;;12.38;11.85;;;;;;;;;;5048697;28;20560;-63
2023/08/19 06:52:10;;;;;;;12.55;11.98;;;;;;;;;;5053825;28;20029;-63
2023/08/19 06:54:36;;;;;;;12.10;11.60;;;;;;;;;;5053148;28;20036;-63
2023/08/19 06:57:09;;;;;;;12.07;11.57;;;;;;;;;;5051192;28;20024;-65
2023/08/19 06:59:38;;;;;;;12.25;11.75;;;;;;;;;;5051005;28;20037;-63
2023/08/19 07:02:04;;;;;;;12.18;11.68;;;;;;;;;;5046985;28;20032;-64
2023/08/19 07:04:30;;;;;;;12.05;11.55;;;;;;;;;;5060769;28;20041;-67
2023/08/19 07:06:57;;;;;;;12.18;11.68;;;;;;;;;;5060388;28;20024;-64
2023/08/19 07:09:23;;;;;;;12.05;11.55;;;;;;;;;;5061952;28;20021;-61
2023/08/19 07:11:52;;;;;;;11.80;11.30;;;;;;;;;;5062020;28;20035;-64
2023/08/19 07:14:18;;;;;;;12.23;11.73;;;;;;;;;;5065270;28;20024;-63
2023/08/19 07:16:43;;;;;;;12.05;11.55;;;;;;;;;;5068992;28;20655;-60
2023/08/19 07:19:10;;;;;;;12.27;11.77;;;;;;;;;;5063460;28;20031;-61
2023/08/19 07:21:35;;;;;;;11.95;11.45;;;;;;;;;;5061821;28;20072;-62
2023/08/19 07:24:01;;;;;;;11.65;11.15;;;;;;;;;;5063258;28;20025;-66
2023/08/19 07:26:27;;;;;;;12.10;11.60;;;;;;;;;;5055875;28;20498;-61
2023/08/19 07:28:52;;;;;;;12.25;11.75;;;;;;;;;;5055739;28;20095;-62
2023/08/19 07:31:19;;;;;;;12.18;11.68;;;;;;;;;;5060899;28;20017;-63
2023/08/19 07:33:44;;;;;;;12.20;11.70;;;;;;;;;;5052288;28;20029;-63
2023/08/19 07:36:09;;;;;;;11.73;11.23;;;;;;;;;;5050817;28;20491;-63
2023/08/19 07:38:35;;;;;;;12.00;11.50;;;;;;;;;;5053388;28;20038;-63
2023/08/19 07:41:00;;;;;;;12.18;11.68;;;;;;;;;;5056733;28;20270;-64
2023/08/19 07:43:25;;;;;;;12.17;11.67;;;;;;;;;;5055958;28;20036;-63
2023/08/19 07:45:51;;;;;;;12.00;11.50;;;;;;;;;;5058097;28;20266;-63
2023/08/19 07:48:16;;;;;;;12.40;11.90;;;;;;;;;;5061405;28;20114;-65
2023/08/19 07:50:41;;;;;;;12.17;11.67;;;;;;;;;;5055299;28;20464;-62
2023/08/19 07:53:07;;;;;;;12.30;11.80;;;;;;;;;;5056814;28;20754;-62
2023/08/19 07:55:33;;;;;;;12.68;12.07;;;;;;;;;;5051919;28;20022;-64
2023/08/19 07:57:58;;;;;;;12.10;11.60;;;;;;;;;;5059012;28;20040;-64
2023/08/19 08:00:23;;;;;;;12.50;11.93;;;;;;;;;;5052662;28;20266;-63
2023/08/19 08:02:48;;;;;;;12.30;11.80;;;;;;;;;;5063884;28;20126;-63
2023/08/19 08:05:14;;;;;;;12.20;11.70;;;;;;;;;;5060251;28;20063;-63
2023/08/19 08:07:39;;;;;;;12.13;11.63;;;;;;;;;;5058274;28;20094;-64
2023/08/19 08:10:05;;;;;;;12.02;11.52;;;;;;;;;;5062383;28;20290;-63
2023/08/19 08:12:31;;;;;;;11.57;11.07;;;;;;;;;;5050508;28;20500;-63
2023/08/19 08:14:59;;;;;;;11.73;11.23;;;;;;;;;;5072655;28;20024;-63
2023/08/19 08:17:24;;;;;;;11.52;11.02;;;;;;;;;;5066128;28;20041;-62
2023/08/19 08:19:50;;;;;;;11.43;10.93;;;;;;;;;;5066639;28;20031;-64
2023/08/19 08:22:15;;;;;;;11.63;11.13;;;;;;;;;;5068354;28;20016;-62
2023/08/19 08:24:41;;;;;;;11.53;11.03;;;;;;;;;;5056854;28;20028;-62
2023/08/19 08:27:07;;;;;;;11.73;11.23;;;;;;;;;;5064572;28;20822;-62
2023/08/19 08:29:32;;;;;;;11.50;11.00;;;;;;;;;;5062604;28;20147;-63
2023/08/19 08:31:57;;;;;;;11.23;10.73;;;;;;;;;;5062620;28;20040;-64
2023/08/19 08:34:23;;;;;;;11.80;11.30;;;;;;;;;;5064178;28;20372;-62
2023/08/19 08:36:48;;;;;;;11.60;11.10;;;;;;;;;;5069439;28;20287;-63
2023/08/19 08:39:14;;;;;;;11.63;11.13;;;;;;;;;;5065191;28;20025;-62
2023/08/19 08:41:39;;;;;;;11.85;11.35;;;;;;;;;;5068293;28;20633;-62
2023/08/19 08:44:08;;;;;;;11.73;11.23;;;;;;;;;;5065617;28;20024;-65
2023/08/19 08:46:34;;;;;;;11.70;11.20;;;;;;;;;;5066326;28;20440;-63
2023/08/19 08:49:00;;;;;;;11.73;11.23;;;;;;;;;;5068067;28;20028;-63
2023/08/19 08:51:26;;;;;;;11.90;11.40;;;;;;;;;;5071756;28;20047;-62
2023/08/19 08:53:52;;;;;;;11.90;11.40;;;;;;;;;;5068049;28;20040;-63
2023/08/19 08:56:18;;;;;;;11.65;11.15;;;;;;;;;;5069255;28;21108;-63
2023/08/19 08:58:44;;;;;;;11.75;11.25;;;;;;;;;;5067786;28;20043;-63
2023/08/19 09:01:09;;;;;;;11.70;11.20;;;;;;;;;;5067783;28;20112;-63
2023/08/19 09:03:36;;;;;;;11.82;11.32;;;;;;;;;;5066932;28;20504;-62
2023/08/19 09:06:07;;;;;;;11.90;11.40;;;;;;;;;;5068476;28;20026;-62
2023/08/19 09:08:45;;;;;;;11.68;11.18;;;;;;;;;;5070342;28;21373;-64
2023/08/19 09:11:13;;;;;;;11.93;11.43;;;;;;;;;;5071338;28;20024;-63
2023/08/19 09:13:39;;;;;;;11.70;11.20;;;;;;;;;;5070005;28;20044;-62
2023/08/19 09:16:10;;;;;;;11.80;11.30;;;;;;;;;;5066830;28;20048;-63
2023/08/19 09:18:35;;;;;;;11.73;11.23;;;;;;;;;;5065878;28;20028;-64
2023/08/19 09:21:01;;;;;;;11.60;11.10;;;;;;;;;;5066830;28;20083;-62
2023/08/19 09:23:28;;;;;;;11.82;11.32;;;;;;;;;;5072477;28;20103;-62
2023/08/19 09:25:54;;;;;;;11.68;11.18;;;;;;;;;;5073027;28;20032;-63
2023/08/19 09:28:20;;;;;;;11.65;11.15;;;;;;;;;;5066940;28;20012;-63
2023/08/19 09:30:46;;;;;;;11.63;11.13;;;;;;;;;;5068941;28;20024;-64
2023/08/19 09:33:17;;;;;;;11.48;10.98;;;;;;;;;;5068180;28;20095;-63
2023/08/19 09:35:42;;;;;;;11.80;11.30;;;;;;;;;;5071069;28;20027;-63
2023/08/19 09:38:18;;;;;;;11.90;11.40;;;;;;;;;;5068563;28;20033;-63
2023/08/19 09:40:43;;;;;;;11.70;11.20;;;;;;;;;;5068268;28;20305;-65
2023/08/19 09:43:08;;;;;;;11.77;11.27;;;;;;;;;;5065939;28;20087;-63
2023/08/19 09:45:35;;;;;;;11.73;11.23;;;;;;;;;;5066288;28;20016;-61
2023/08/19 09:48:00;;;;;;;11.82;11.32;;;;;;;;;;5066514;28;20541;-62
2023/08/19 09:50:27;;;;;;;12.00;11.50;;;;;;;;;;5067662;28;20071;-62
2023/08/19 09:52:57;;;;;;;11.82;11.32;;;;;;;;;;5073536;28;20032;-62
2023/08/19 09:55:23;;;;;;;11.80;11.30;;;;;;;;;;5066750;28;20029;-63
2023/08/19 09:57:49;;;;;;;11.77;11.27;;;;;;;;;;5065268;28;20024;-62
2023/08/19 10:00:15;;;;;;;11.77;11.27;;;;;;;;;;5067766;28;20033;-62
2023/08/19 10:02:41;;;;;;;11.82;11.32;;;;;;;;;;5066912;28;20031;-62
2023/08/19 10:05:06;;;;;;;12.07;11.57;;;;;;;;;;5067923;28;20483;-63
2023/08/19 10:07:32;;;;;;;11.57;11.07;;;;;;;;;;5066957;28;20086;-62
2023/08/19 10:10:01;;;;;;;11.20;10.70;;;;;;;;;;5071253;28;20065;-63
2023/08/19 10:12:27;;;;;;;11.32;10.82;;;;;;;;;;5064355;28;20036;-62
2023/08/19 10:14:56;;;;;;;11.40;10.90;;;;;;;;;;5065089;28;20036;-66
2023/08/19 10:17:22;;;;;;;11.68;11.18;;;;;;;;;;5068099;28;20376;-63
2023/08/19 10:19:54;;;;;;;11.55;11.05;;;;;;;;;;5069723;28;20475;-63
2023/08/19 10:22:19;;;;;;;11.73;11.23;;;;;;;;;;5077515;28;20041;-63
2023/08/19 10:24:46;;;;;;;11.70;11.20;;;;;;;;;;5067983;28;20491;-63
2023/08/19 10:27:18;;;;;;;11.90;11.40;;;;;;;;;;5067144;28;20488;-62
2023/08/19 10:29:48;;;;;;;11.50;11.00;;;;;;;;;;5061200;28;20036;-62
2023/08/19 10:32:30;;;;;;;11.43;10.93;;;;;;;;;;5067462;28;20028;-63
2023/08/19 10:35:09;;;;;;;11.82;11.32;;;;;;;;;;5067915;28;20094;-63
2023/08/19 10:37:45;;;;;;;11.63;11.13;;;;;;;;;;5064639;28;20070;-63
2023/08/19 10:40:11;;;;;;;11.80;11.30;;;;;;;;;;5065123;28;20052;-63
2023/08/19 10:42:36;;;;;;;11.88;11.38;;;;;;;;;;5070400;28;20048;-62
2023/08/19 10:45:03;;;;;;;11.80;11.30;;;;;;;;;;5066623;28;20025;-63
2023/08/19 10:47:29;;;;;;;11.70;11.20;;;;;;;;;;5046983;28;20392;-62
2023/08/19 10:50:06;;;;;;;11.73;11.23;;;;;;;;;;5069052;28;20036;-62
2023/08/19 10:52:32;;;;;;;11.73;11.23;;;;;;;;;;5064808;28;20032;-63
2023/08/19 10:54:58;;;;;;;11.77;11.27;;;;;;;;;;5064730;28;20071;-64
2023/08/19 10:57:25;;;;;;;11.60;11.10;;;;;;;;;;5064790;28;20089;-65
2023/08/19 10:59:56;;;;;;;11.75;11.25;;;;;;;;;;5061189;28;20036;-64
2023/08/19 11:02:21;;;;;;;11.50;11.00;;;;;;;;;;5067197;28;20103;-64
2023/08/19 11:04:47;;;;;;;11.77;11.27;;;;;;;;;;5063036;28;20150;-64
2023/08/19 11:07:13;;;;;;;11.50;11.00;;;;;;;;;;5062225;28;20343;-65
2023/08/19 11:09:40;;;;;;;11.70;11.20;;;;;;;;;;5049231;28;20123;-63
2023/08/19 11:12:05;;;;;;;11.60;11.10;;;;;;;;;;5062077;28;20032;-62
2023/08/19 11:14:31;;;;;;;11.88;11.38;;;;;;;;;;5060954;28;20139;-63
2023/08/19 11:16:56;;;;;;;11.77;11.27;;;;;;;;;;5058459;28;20021;-63
2023/08/19 11:19:22;;;;;;;11.93;11.43;;;;;;;;;;5064119;28;20042;-63
2023/08/19 11:21:47;;;;;;;11.80;11.30;;;;;;;;;;5061526;28;20526;-64
2023/08/19 11:24:13;;;;;;;12.20;11.70;;;;;;;;;;5057302;28;20118;-63
2023/08/19 11:26:39;;;;;;;11.70;11.20;;;;;;;;;;5059313;28;20475;-62
2023/08/19 11:29:05;;;;;;;11.70;11.20;;;;;;;;;;5062213;28;20031;-64
2023/08/19 11:31:31;;;;;;;11.90;11.40;;;;;;;;;;5040133;28;20044;-63
2023/08/19 11:33:56;;;;;;;11.90;11.40;;;;;;;;;;5060348;28;20017;-63
2023/08/19 11:36:25;;;;;;;11.75;11.25;;;;;;;;;;5059834;28;20050;-63
2023/08/19 11:38:55;;;;;;;11.50;11.00;;;;;;;;;;5069376;28;20521;-63
2023/08/19 11:41:20;;;;;;;11.70;11.20;;;;;;;;;;5068361;28;20115;-62
2023/08/19 11:43:45;;;;;;;11.80;11.30;;;;;;;;;;5066634;28;20105;-64
2023/08/19 11:46:11;;;;;;;12.13;11.63;;;;;;;;;;5060836;28;20027;-63
2023/08/19 11:48:37;;;;;;;11.73;11.23;;;;;;;;;;5063286;28;20048;-62
2023/08/19 11:51:08;;;;;;;11.68;11.18;;;;;;;;;;5061779;28;20043;-63
2023/08/19 11:53:33;;;;;;;11.80;11.30;;;;;;;;;;5061985;28;20040;-64
2023/08/19 11:55:59;;;;;;;11.93;11.43;;;;;;;;;;5060249;28;20020;-63
2023/08/19 11:58:40;;;;;;;11.88;11.38;;;;;;;;;;5067187;28;20100;-63
2023/08/19 12:01:06;;;;;;;11.82;11.32;;;;;;;;;;5057722;28;20028;-65
2023/08/19 12:03:31;;;;;;;12.10;11.60;;;;;;;;;;5053854;28;20431;-63
2023/08/19 12:05:57;;;;;;;11.90;11.40;;;;;;;;;;5054184;28;20012;-64
2023/08/19 12:08:27;;;;;;;11.90;11.40;;;;;;;;;;5058251;28;20056;-64
2023/08/19 12:10:53;;;;;;;11.80;11.30;;;;;;;;;;5058187;28;20547;-63
2023/08/19 12:13:22;;;;;;;11.73;11.23;;;;;;;;;;5061963;28;20024;-64
2023/08/19 12:15:47;;;;;;;11.57;11.07;;;;;;;;;;5061362;28;20430;-64
2023/08/19 12:18:16;;;;;;;11.80;11.30;;;;;;;;;;5067375;28;20028;-63
2023/08/19 12:20:42;;;;;;;11.73;11.23;;;;;;;;;;5059383;28;20021;-64
2023/08/19 12:23:07;;;;;;;11.90;11.40;;;;;;;;;;5062667;28;20027;-65
2023/08/19 12:25:33;;;;;;;11.90;11.40;;;;;;;;;;5055997;28;20025;-65
2023/08/19 12:27:58;;;;;;;11.75;11.25;;;;;;;;;;5067530;28;20265;-63
2023/08/19 12:30:24;;;;;;;11.75;11.25;;;;;;;;;;5064231;28;20028;-64
2023/08/19 12:32:49;;;;;;;11.90;11.40;;;;;;;;;;5065405;28;20029;-63
2023/08/19 12:35:14;;;;;;;11.53;11.03;;;;;;;;;;5066682;28;20108;-64
2023/08/19 12:37:40;;;;;;;12.05;11.55;;;;;;;;;;5064439;28;20273;-64
2023/08/19 12:40:07;;;;;;;12.02;11.52;;;;;;;;;;5046600;28;21264;-64
2023/08/19 12:42:35;;;;;;;12.02;11.52;;;;;;;;;;5056383;28;20051;-63
2023/08/19 12:45:00;;;;;;;11.63;11.13;;;;;;;;;;5059793;28;20020;-64
2023/08/19 12:47:25;;;;;;;11.63;11.13;;;;;;;;;;5060370;28;20079;-63
2023/08/19 12:49:50;;;;;;;11.48;10.98;;;;;;;;;;5062666;28;20020;-64
2023/08/19 12:52:16;;;;;;;11.87;11.37;;;;;;;;;;5064084;28;20028;-64
2023/08/19 12:54:41;;;;;;;11.73;11.23;;;;;;;;;;5068156;28;20288;-63
2023/08/19 12:57:06;;;;;;;11.77;11.27;;;;;;;;;;5065082;28;20352;-62
2023/08/19 12:59:32;;;;;;;11.95;11.45;;;;;;;;;;5050258;28;20268;-64
2023/08/19 13:01:57;;;;;;;11.85;11.35;;;;;;;;;;5062979;28;20128;-65
2023/08/19 13:04:22;;;;;;;11.85;11.35;;;;;;;;;;5064185;28;20045;-64
2023/08/19 13:06:48;;;;;;;11.87;11.37;;;;;;;;;;5066069;28;20024;-64
2023/08/19 13:09:16;;;;;;;11.70;11.20;;;;;;;;;;5067804;28;20308;-65
2023/08/19 13:11:42;;;;;;;11.77;11.27;;;;;;;;;;5060515;28;20027;-64
2023/08/19 13:14:07;;;;;;;11.68;11.18;;;;;;;;;;5061620;28;20021;-65
2023/08/19 13:16:32;;;;;;;11.40;10.90;;;;;;;;;;5063182;28;20115;-65
2023/08/19 13:19:00;;;;;;;11.45;10.95;;;;;;;;;;5059480;28;20036;-65
2023/08/19 13:21:25;;;;;;;11.50;11.00;;;;;;;;;;5067869;28;20044;-65
2023/08/19 13:23:51;;;;;;;11.60;11.10;;;;;;;;;;5059044;28;20480;-63
2023/08/19 13:26:17;;;;;;;11.82;11.32;;;;;;;;;;5065363;28;20024;-65
2023/08/19 13:28:43;;;;;;;11.65;11.15;;;;;;;;;;5058293;28;20424;-66
2023/08/19 13:31:08;;;;;;;11.35;10.85;;;;;;;;;;5075456;28;20107;-65
2023/08/19 13:33:34;;;;;;;11.52;11.02;;;;;;;;;;5069252;28;20033;-64
2023/08/19 13:35:59;;;;;;;11.35;10.85;;;;;;;;;;5068313;28;20072;-63
2023/08/19 13:38:25;;;;;;;11.45;10.95;;;;;;;;;;5067836;28;20107;-64
2023/08/19 13:40:50;;;;;;;11.65;11.15;;;;;;;;;;5065222;28;21909;-63
2023/08/19 13:43:15;;;;;;;11.90;11.40;;;;;;;;;;5053478;28;20032;-63
2023/08/19 13:45:40;;;;;;;11.73;11.23;;;;;;;;;;5064740;28;20752;-62
2023/08/19 13:48:06;;;;;;;11.80;11.30;;;;;;;;;;5067031;28;20027;-63
2023/08/19 13:50:31;;;;;;;11.80;11.30;;;;;;;;;;5055082;28;20039;-65
2023/08/19 13:52:56;;;;;;;11.90;11.40;;;;;;;;;;5056115;28;20029;-64
2023/08/19 13:55:22;;;;;;;11.80;11.30;;;;;;;;;;5056717;28;20039;-64
2023/08/19 13:57:47;;;;;;;11.73;11.23;;;;;;;;;;5056511;28;20121;-65
2023/08/19 14:00:15;;;;;;;11.23;10.73;;;;;;;;;;5053978;28;20486;-63
2023/08/19 14:02:41;;;;;;;11.80;11.30;;;;;;;;;;5065501;28;20044;-65
2023/08/19 14:05:08;;;;;;;11.55;11.05;;;;;;;;;;5066232;28;20024;-65
2023/08/19 14:07:34;;;;;;;11.55;11.05;;;;;;;;;;5068696;28;20032;-64
2023/08/19 14:09:59;;;;;;;11.33;10.83;;;;;;;;;;5057457;28;20024;-65